createdAt,value
2019-02-28T00:00:59.864Z,18.67
2019-02-28T00:06:04.726Z,20.90
2019-02-28T00:11:09.474Z,18.13
2019-02-28T00:16:14.232Z,20.27
2019-02-28T00:21:19.235Z,19.10
2019-02-28T00:26:23.992Z,18.57
2019-02-28T00:31:28.678Z,20.13
2019-02-28T00:36:34.434Z,17.60
2019-02-28T00:41:43.202Z,17.83
2019-02-28T00:46:45.611Z,15.03
2019-02-28T00:51:50.295Z,16.63
2019-02-28T00:56:54.925Z,20.17
2019-02-28T01:01:59.643Z,21.47
2019-02-28T01:07:04.648Z,17.80
2019-02-28T01:12:09.621Z,16.20
2019-02-28T01:17:14.333Z,17.03
2019-02-28T01:22:19.003Z,18.77
2019-02-28T01:27:23.691Z,21.40
2019-02-28T01:32:28.365Z,20.77
2019-02-28T01:37:33.097Z,16.57
2019-02-28T01:42:37.819Z,14.80
2019-02-28T01:47:42.607Z,16.60
2019-02-28T01:52:47.300Z,17.97
2019-02-28T01:57:51.991Z,16.00
2019-02-28T02:02:56.679Z,15.87
2019-02-28T02:08:06.470Z,17.00
2019-02-28T02:13:07.848Z,16.13
2019-02-28T02:18:13.587Z,14.10
2019-02-28T02:23:18.930Z,16.63
2019-02-28T02:28:26.774Z,16.80
2019-02-28T02:33:30.036Z,14.73
2019-02-28T02:38:39.890Z,12.47
2019-02-28T02:43:41.182Z,14.37
2019-02-28T02:48:45.910Z,18.53
2019-02-28T02:53:50.606Z,17.65
2019-02-28T02:58:55.298Z,13.87
2019-02-28T03:04:00.390Z,14.53
2019-02-28T03:09:09.894Z,14.93
2019-02-28T03:14:16.390Z,17.03
2019-02-28T03:19:20.199Z,13.27
2019-02-28T03:24:24.863Z,15.73
2019-02-28T03:29:29.552Z,17.07
2019-02-28T03:34:34.254Z,20.57
2019-02-28T03:39:38.996Z,15.07
2019-02-28T03:44:43.657Z,16.37
2019-02-28T03:49:49.840Z,15.60
2019-02-28T03:54:54.917Z,17.00
2019-02-28T03:59:59.691Z,18.17
2019-02-28T04:05:04.747Z,21.57
2019-02-28T04:10:09.906Z,22.10
2019-02-28T04:15:14.835Z,22.37
2019-02-28T04:20:19.745Z,20.37
2019-02-28T04:25:24.620Z,28.57
2019-02-28T04:30:33.070Z,25.13
2019-02-28T04:35:37.883Z,27.33
2019-02-28T04:40:42.583Z,25.70
2019-02-28T04:45:47.348Z,21.43
2019-02-28T04:50:52.500Z,25.40
2019-02-28T04:55:57.216Z,27.83
2019-02-28T05:01:01.890Z,29.67
2019-02-28T05:06:07.649Z,29.03
2019-02-28T05:11:12.443Z,31.62
2019-02-28T05:16:17.574Z,29.87
2019-02-28T05:21:22.310Z,32.60
2019-02-28T05:26:27.082Z,34.40
2019-02-28T05:31:31.822Z,33.13
2019-02-28T05:36:37.891Z,30.00
2019-02-28T05:41:43.110Z,31.43
2019-02-28T05:46:47.784Z,37.17
2019-02-28T05:51:52.575Z,28.20
2019-02-28T05:56:57.260Z,30.77
2019-02-28T06:02:02.064Z,33.20
2019-02-28T06:07:06.776Z,37.93
2019-02-28T06:12:11.542Z,33.90
2019-02-28T06:17:17.348Z,35.73
2019-02-28T06:22:22.691Z,41.70
2019-02-28T06:27:27.422Z,37.63
2019-02-28T06:32:32.191Z,41.30
2019-02-28T06:37:38.389Z,40.23
2019-02-28T06:42:46.343Z,38.40
2019-02-28T06:47:50.221Z,38.80
2019-02-28T06:52:56.413Z,47.80
2019-02-28T06:58:01.499Z,42.97
2019-02-28T07:03:06.282Z,42.83
2019-02-28T07:08:11.002Z,45.00
2019-02-28T07:13:15.764Z,46.10
2019-02-28T07:18:20.593Z,48.70
2019-02-28T07:23:26.663Z,51.80
2019-02-28T07:28:36.188Z,52.77
2019-02-28T07:33:38.159Z,48.17
2019-02-28T07:38:42.923Z,51.60
2019-02-28T07:43:47.657Z,51.40
2019-02-28T07:48:52.377Z,54.93
2019-02-28T07:53:57.137Z,50.93
2019-02-28T07:59:05.243Z,54.97
2019-02-28T08:04:08.224Z,58.80
2019-02-28T08:09:24.593Z,59.73
2019-02-28T08:14:29.313Z,59.63
2019-02-28T08:19:34.010Z,66.07
2019-02-28T08:24:38.693Z,64.27
2019-02-28T08:29:45.774Z,62.63
2019-02-28T08:34:50.342Z,63.97
2019-02-28T08:39:55.059Z,63.30
2019-02-28T08:45:00.210Z,62.07
2019-02-28T08:50:06.678Z,64.83
2019-02-28T08:55:13.333Z,70.73
2019-02-28T09:00:19.745Z,75.53
2019-02-28T09:05:26.142Z,78.07
2019-02-28T09:10:30.909Z,75.40
2019-02-28T09:15:35.957Z,73.10
2019-02-28T09:20:41.400Z,72.97
2019-02-28T09:25:47.212Z,72.30
2019-02-28T09:30:52.244Z,86.17
2019-02-28T09:35:57.312Z,77.00
2019-02-28T09:41:04.608Z,72.47
2019-02-28T09:46:09.144Z,66.10
2019-02-28T09:51:13.979Z,71.73
2019-02-28T09:56:19.477Z,74.83
2019-02-28T10:01:25.140Z,71.97
2019-02-28T10:06:29.921Z,74.57
2019-02-28T10:11:34.617Z,72.20
2019-02-28T10:16:39.271Z,72.13
2019-02-28T10:21:43.994Z,74.20
2019-02-28T10:26:51.436Z,69.50
2019-02-28T10:31:55.235Z,67.67
2019-02-28T10:37:00.004Z,66.87
2019-02-28T10:42:05.885Z,70.77
2019-02-28T10:47:10.903Z,65.53
2019-02-28T10:52:15.641Z,61.40
2019-02-28T10:57:20.376Z,68.13
2019-02-28T11:02:25.258Z,71.03
2019-02-28T11:07:30.050Z,72.53
2019-02-28T11:12:36.280Z,75.07
2019-02-28T11:17:41.136Z,67.17
2019-02-28T11:22:46.225Z,66.13
2019-02-28T11:27:53.773Z,63.70
2019-02-28T11:33:03.069Z,62.17
2019-02-28T11:38:05.126Z,65.52
2019-02-28T11:43:10.321Z,68.33
2019-02-28T11:48:19.095Z,60.95
2019-02-28T11:53:22.521Z,60.05
2019-02-28T11:58:27.327Z,63.68
2019-02-28T12:03:35.495Z,69.80
2019-02-28T12:08:41.478Z,59.90
2019-02-28T12:13:44.941Z,69.50
2019-02-28T12:18:49.724Z,60.52
2019-02-28T12:23:57.289Z,64.50
2019-02-28T12:29:01.016Z,63.15
2019-02-28T12:34:06.482Z,65.93
2019-02-28T12:39:11.192Z,62.43
2019-02-28T12:44:16.193Z,54.20
2019-02-28T12:49:22.252Z,57.27
2019-02-28T12:54:30.421Z,58.40
2019-02-28T12:59:34.827Z,58.20
2019-02-28T13:04:39.581Z,60.33
2019-02-28T13:09:44.425Z,60.90
2019-02-28T13:14:49.137Z,57.67
2019-02-28T13:19:56.570Z,59.20
2019-02-28T13:25:00.304Z,55.10
2019-02-28T13:30:10.430Z,58.37
2019-02-28T13:35:14.966Z,65.83
2019-02-28T13:40:22.066Z,60.78
2019-02-28T13:45:26.570Z,61.08
2019-02-28T13:50:32.538Z,63.52
2019-02-28T13:55:37.679Z,63.02
2019-02-28T14:00:45.764Z,64.10
2019-02-28T14:05:48.936Z,65.78
2019-02-28T14:10:54.770Z,66.73
2019-02-28T14:15:59.465Z,71.92
2019-02-28T14:21:04.443Z,64.35
2019-02-28T14:26:11.370Z,67.27
2019-02-28T14:31:16.336Z,67.62
2019-02-28T14:36:21.190Z,60.67
2019-02-28T14:41:28.453Z,67.70
2019-02-28T14:46:34.788Z,65.22
2019-02-28T14:51:39.736Z,60.43
2019-02-28T14:56:44.492Z,68.60
2019-02-28T15:01:49.583Z,58.65
2019-02-28T15:06:56.632Z,60.12
2019-02-28T15:12:02.313Z,59.33
2019-02-28T15:17:07.683Z,64.00
2019-02-28T15:22:14.224Z,62.75
2019-02-28T15:27:18.934Z,67.78
2019-02-28T15:32:23.744Z,68.15
2019-02-28T15:37:30.447Z,66.33
2019-02-28T15:42:36.004Z,57.17
2019-02-28T15:47:40.961Z,62.38
2019-02-28T15:52:45.737Z,65.90
2019-02-28T15:57:50.601Z,66.72
2019-02-28T16:02:55.534Z,71.22
2019-02-28T16:08:00.441Z,68.07
2019-02-28T16:13:06.710Z,69.97
2019-02-28T16:18:12.133Z,67.40
2019-02-28T16:23:17.608Z,75.00
2019-02-28T16:28:22.342Z,69.47
2019-02-28T16:33:27.218Z,74.80
2019-02-28T16:38:31.899Z,80.62
2019-02-28T16:43:36.611Z,72.43
2019-02-28T16:48:41.810Z,74.40
2019-02-28T16:53:47.996Z,75.92
2019-02-28T16:58:53.833Z,74.93
2019-02-28T17:04:00.369Z,75.67
2019-02-28T17:09:41.407Z,77.00
2019-02-28T17:14:48.338Z,85.70
2019-02-28T17:19:52.644Z,84.03
2019-02-28T17:24:57.658Z,84.80
2019-02-28T17:30:20.912Z,85.03
2019-02-28T17:35:25.620Z,91.23
2019-02-28T17:40:30.280Z,99.20
2019-02-28T17:45:35.897Z,89.37
2019-02-28T17:51:08.867Z,89.35
2019-02-28T17:56:44.774Z,83.67
2019-02-28T18:02:28.437Z,82.53
2019-02-28T18:08:14.551Z,88.10
2019-02-28T18:13:55.426Z,79.87
2019-02-28T18:19:18.107Z,88.67
2019-02-28T18:25:02.930Z,81.40
2019-02-28T18:30:52.358Z,78.13
2019-02-28T18:35:57.107Z,85.00
2019-02-28T18:41:05.631Z,77.17
2019-02-28T18:46:09.630Z,78.42
2019-02-28T18:51:16.654Z,80.72
2019-02-28T18:56:21.208Z,82.70
2019-02-28T19:01:25.906Z,84.13
2019-02-28T19:06:30.688Z,89.20
2019-02-28T19:11:35.409Z,82.73
2019-02-28T19:16:40.114Z,81.23
2019-02-28T19:21:44.808Z,88.90
2019-02-28T19:26:49.598Z,88.53
2019-02-28T19:31:54.430Z,84.83
2019-02-28T19:36:59.297Z,78.57
2019-02-28T19:42:04.636Z,84.07
2019-02-28T19:47:09.455Z,84.00
2019-02-28T19:52:14.257Z,83.83
2019-02-28T19:57:19.005Z,86.97
2019-02-28T20:02:23.708Z,92.90
2019-02-28T20:07:28.414Z,91.53
2019-02-28T20:12:33.109Z,92.33
2019-02-28T20:17:37.911Z,89.40
2019-02-28T20:22:42.801Z,90.67
2019-02-28T20:27:47.630Z,97.93
2019-02-28T20:32:53.661Z,89.70
2019-02-28T20:37:58.402Z,106.93
2019-02-28T20:43:03.357Z,95.67
2019-02-28T20:48:08.258Z,104.10
2019-02-28T20:54:05.818Z,96.90
2019-02-28T20:59:12.152Z,90.47
2019-02-28T21:04:16.848Z,96.53
2019-02-28T21:09:22.025Z,98.30
2019-02-28T21:14:26.881Z,90.60
2019-02-28T21:19:31.799Z,94.30
2019-02-28T21:24:36.516Z,99.43
2019-02-28T21:29:41.212Z,90.07
2019-02-28T21:34:45.952Z,83.47
2019-02-28T21:39:50.729Z,83.23
2019-02-28T21:44:55.651Z,81.53
2019-02-28T21:50:00.486Z,86.83
2019-02-28T21:55:06.433Z,90.43
2019-02-28T22:00:17.377Z,77.90
2019-02-28T22:05:22.646Z,74.13
2019-02-28T22:10:27.351Z,70.50
2019-02-28T22:15:32.027Z,63.53
2019-02-28T22:20:36.856Z,58.13
2019-02-28T22:25:42.541Z,62.93
2019-02-28T22:31:06.337Z,55.47
2019-02-28T22:36:13.443Z,61.42
2019-02-28T22:41:18.419Z,49.90
2019-02-28T22:46:23.161Z,55.97
2019-02-28T22:51:27.877Z,52.07
2019-02-28T22:56:32.633Z,48.90
2019-02-28T23:01:37.834Z,53.97
2019-02-28T23:06:42.521Z,53.87
2019-02-28T23:11:47.600Z,52.47
2019-02-28T23:16:52.302Z,58.03
2019-02-28T23:21:57.004Z,51.77
2019-02-28T23:27:26.982Z,59.77
2019-02-28T23:32:41.960Z,52.30
2019-02-28T23:37:46.801Z,61.57
2019-02-28T23:42:51.480Z,52.40
2019-02-28T23:47:56.156Z,55.87
2019-02-28T23:53:01.102Z,59.53
2019-02-28T23:58:05.842Z,54.63
